Time;durP1;ratioP1;P1;durP2;ratioP2;P2;SDS_P1;SDS_P2;PMS_P1;PMS_P2;Temp;Humidity;BMP_temperature;BMP_pressure;BME280_temperature;BME280_humidity;BME280_pressure;Samples;Min_cycle;Max_cycle;Signal;HPM_P1;HPM_P2
2022/04/07 00:00:44;;;;;;;5.32;3.10;;;10.00;99.90;;;;;;5079378;28;20440;-72
2022/04/07 00:03:10;;;;;;;2.22;1.63;;;10.00;99.90;;;;;;5073358;28;20052;-71
2022/04/07 00:05:37;;;;;;;3.25;2.10;;;10.00;99.90;;;;;;5081132;28;20099;-72
2022/04/07 00:08:04;;;;;;;3.55;2.08;;;10.00;99.90;;;;;;5093086;28;20063;-72
2022/04/07 00:10:31;;;;;;;5.40;2.05;;;9.90;99.90;;;;;;5092345;28;20040;-72
2022/04/07 00:12:57;;;;;;;3.80;2.65;;;9.90;99.90;;;;;;5076568;28;20060;-72
2022/04/07 00:15:25;;;;;;;3.22;2.28;;;9.80;99.90;;;;;;5074122;28;20070;-72
2022/04/07 00:17:52;;;;;;;2.10;2.00;;;9.70;99.90;;;;;;5073239;28;20049;-72
2022/04/07 00:20:20;;;;;;;2.53;1.77;;;9.70;99.90;;;;;;5072890;28;20506;-73
2022/04/07 00:22:47;;;;;;;4.50;2.13;;;9.70;99.90;;;;;;5074150;28;20163;-73
2022/04/07 00:25:14;;;;;;;3.58;1.70;;;9.70;99.90;;;;;;5073194;28;20048;-73
2022/04/07 00:27:40;;;;;;;3.80;1.80;;;9.60;99.90;;;;;;5078986;28;20131;-72
2022/04/07 00:30:09;;;;;;;2.53;2.33;;;9.60;99.90;;;;;;5093022;28;20093;-72
2022/04/07 00:32:42;;;;;;;5.00;2.35;;;9.60;99.90;;;;;;5088241;28;20080;-73
2022/04/07 00:35:09;;;;;;;2.17;1.98;;;9.70;99.90;;;;;;5076891;28;20049;-72
2022/04/07 00:37:36;;;;;;;2.03;1.80;;;9.70;99.90;;;;;;5077051;28;20053;-73
2022/04/07 00:40:03;;;;;;;2.25;1.75;;;9.70;99.90;;;;;;5082068;28;20466;-72
2022/04/07 00:42:30;;;;;;;2.17;1.98;;;9.70;99.90;;;;;;5094322;28;20098;-72
2022/04/07 00:44:57;;;;;;;2.35;2.10;;;9.70;99.90;;;;;;5091704;28;20041;-73
2022/04/07 00:47:24;;;;;;;2.15;1.63;;;9.70;99.90;;;;;;5076746;28;20094;-73
2022/04/07 00:49:52;;;;;;;4.45;2.15;;;9.70;99.90;;;;;;5076670;28;20049;-73
2022/04/07 00:52:20;;;;;;;4.70;2.55;;;9.70;99.90;;;;;;5076517;28;20063;-73
2022/04/07 00:54:47;;;;;;;3.92;1.70;;;9.60;99.90;;;;;;5077618;28;20044;-72
2022/04/07 00:57:14;;;;;;;1.75;1.65;;;9.50;99.90;;;;;;5085512;28;20071;-73
2022/04/07 00:59:41;;;;;;;4.15;2.08;;;9.60;99.90;;;;;;5094622;28;20044;-73
2022/04/07 01:02:09;;;;;;;3.33;2.10;;;9.60;99.90;;;;;;5075996;28;20482;-72
2022/04/07 01:04:36;;;;;;;2.55;2.08;;;9.50;99.90;;;;;;5085321;28;20040;-73
2022/04/07 01:07:07;;;;;;;3.30;2.00;;;9.50;99.90;;;;;;5096673;28;20047;-71
2022/04/07 01:09:34;;;;;;;3.25;2.15;;;9.60;99.90;;;;;;5096747;28;20080;-72
2022/04/07 01:12:00;;;;;;;6.32;3.38;;;9.50;99.90;;;;;;5085052;28;20135;-72
2022/04/07 01:14:27;;;;;;;3.55;2.10;;;9.40;99.90;;;;;;5076842;28;20516;-73
2022/04/07 01:16:53;;;;;;;3.08;1.83;;;9.50;99.90;;;;;;5076248;28;20044;-72
2022/04/07 01:19:20;;;;;;;3.58;2.08;;;9.40;99.90;;;;;;5076078;28;20110;-72
2022/04/07 01:21:47;;;;;;;4.97;2.03;;;9.40;99.90;;;;;;5076073;28;20067;-72
2022/04/07 01:24:14;;;;;;;2.40;2.03;;;9.30;99.90;;;;;;5076092;28;20075;-72
2022/04/07 01:26:44;;;;;;;9.57;2.63;;;9.30;99.90;;;;;;5076932;28;20040;-72
2022/04/07 01:29:13;;;;;;;2.58;1.90;;;9.30;99.90;;;;;;5091693;28;20063;-73
2022/04/07 01:35:02;;;;;;;6.63;1.88;;;9.30;99.90;;;;;;5075849;28;20034;-71
2022/04/07 01:37:30;;;;;;;3.50;2.42;;;9.30;99.90;;;;;;5091026;28;20051;-72
2022/04/07 01:39:56;;;;;;;3.83;2.63;;;9.30;99.90;;;;;;5095015;28;20135;-72
2022/04/07 01:42:24;;;;;;;4.05;2.22;;;9.30;99.90;;;;;;5093326;28;20139;-72
2022/04/07 01:44:53;;;;;;;2.30;1.73;;;9.30;99.90;;;;;;5081500;28;20127;-72
2022/04/07 01:47:22;;;;;;;3.10;2.67;;;9.20;99.90;;;;;;5076550;28;20098;-72
2022/04/07 01:49:56;;;;;;;2.92;1.88;;;9.20;99.90;;;;;;5075572;28;20473;-72
2022/04/07 01:52:24;;;;;;;3.72;2.80;;;9.20;99.90;;;;;;5075244;28;20591;-72
2022/04/07 01:54:53;;;;;;;5.50;2.45;;;9.20;99.90;;;;;;5075461;28;20059;-72
2022/04/07 01:57:23;;;;;;;6.93;2.40;;;9.20;99.90;;;;;;5076054;28;20159;-71
2022/04/07 01:59:51;;;;;;;4.28;2.55;;;9.20;99.90;;;;;;5075864;28;20109;-73
2022/04/07 02:02:18;;;;;;;2.88;2.35;;;9.10;99.90;;;;;;5075740;28;20127;-72
2022/04/07 02:04:54;;;;;;;5.22;2.25;;;9.10;99.90;;;;;;5075449;28;20076;-71
2022/04/07 02:07:21;;;;;;;2.53;1.98;;;9.10;99.90;;;;;;5082221;28;20080;-72
2022/04/07 02:09:48;;;;;;;2.40;2.00;;;9.10;99.90;;;;;;5095316;28;20109;-73
2022/04/07 02:12:19;;;;;;;4.70;2.35;;;9.10;99.90;;;;;;5094968;28;20127;-73
2022/04/07 02:14:47;;;;;;;;;;;9.00;99.90;;;;;;5090943;28;20075;-72
2022/04/07 02:17:17;;;;;;;4.50;2.53;;;8.90;99.90;;;;;;5095181;28;20015;-71
2022/04/07 02:19:45;;;;;;;5.30;2.15;;;8.90;99.90;;;;;;5092792;28;20048;-72
2022/04/07 02:22:11;;;;;;;3.33;3.03;;;8.90;99.90;;;;;;5095160;28;20130;-72
2022/04/07 02:24:40;;;;;;;2.40;2.17;;;8.80;99.90;;;;;;5084959;28;20071;-72
2022/04/07 02:27:07;;;;;;;3.47;2.70;;;8.80;99.90;;;;;;5078256;28;20051;-71
2022/04/07 02:29:34;;;;;;;7.72;3.05;;;8.90;99.90;;;;;;5090139;28;20053;-71
2022/04/07 02:32:01;;;;;;;6.90;2.85;;;8.80;99.90;;;;;;5094950;28;20127;-72
2022/04/07 02:34:28;;;;;;;4.80;3.58;;;8.80;99.90;;;;;;5092691;28;20086;-72
2022/04/07 02:36:55;;;;;;;5.32;3.63;;;8.90;99.90;;;;;;5074823;28;20094;-72
2022/04/07 02:39:22;;;;;;;3.70;2.80;;;9.00;99.90;;;;;;5075554;28;20129;-73
2022/04/07 02:41:48;;;;;;;5.75;3.20;;;9.10;99.90;;;;;;5074404;28;20147;-72
2022/04/07 02:44:17;;;;;;;3.65;2.70;;;9.10;99.90;;;;;;5076841;28;20132;-73
2022/04/07 02:46:43;;;;;;;6.28;3.05;;;9.10;99.90;;;;;;5074558;28;20059;-72
2022/04/07 02:49:10;;;;;;;6.57;2.55;;;9.10;99.90;;;;;;5074340;28;20048;-73
2022/04/07 02:51:38;;;;;;;3.30;2.83;;;9.10;99.90;;;;;;5093957;28;20083;-73
2022/04/07 02:54:05;;;;;;;5.93;3.92;;;9.00;99.90;;;;;;5092383;28;20513;-73
2022/04/07 02:56:31;;;;;;;8.40;4.32;;;9.10;99.90;;;;;;5077212;28;20127;-72
2022/04/07 02:58:58;;;;;;;4.75;2.92;;;9.10;99.90;;;;;;5074467;28;20131;-72
2022/04/07 03:01:24;;;;;;;3.65;3.00;;;9.00;99.90;;;;;;5074760;28;20475;-72
2022/04/07 03:03:52;;;;;;;4.85;3.83;;;9.10;99.90;;;;;;5086439;28;20099;-72
2022/04/07 03:06:19;;;;;;;4.70;3.63;;;9.10;99.90;;;;;;5092438;28;20050;-72
2022/04/07 03:08:47;;;;;;;5.60;3.17;;;9.10;99.90;;;;;;5086666;28;20128;-72
2022/04/07 03:11:13;;;;;;;5.07;2.78;;;9.00;99.90;;;;;;5079607;28;20134;-73
2022/04/07 03:13:40;;;;;;;2.30;2.00;;;9.00;99.90;;;;;;5094260;28;20056;-72
2022/04/07 03:16:07;;;;;;;5.05;2.92;;;8.90;99.90;;;;;;5087945;28;20498;-72
2022/04/07 03:18:34;;;;;;;3.40;2.85;;;9.00;99.90;;;;;;5075234;28;20127;-72
2022/04/07 03:21:01;;;;;;;3.88;2.92;;;9.00;99.90;;;;;;5091401;28;20129;-72
2022/04/07 03:23:28;;;;;;;3.17;2.83;;;8.90;99.90;;;;;;5074734;28;20040;-72
2022/04/07 03:25:56;;;;;;;5.40;3.05;;;8.90;99.90;;;;;;5074850;28;20139;-72
2022/04/07 03:28:22;;;;;;;3.83;3.25;;;8.80;99.90;;;;;;5074022;28;20124;-71
2022/04/07 03:30:49;;;;;;;3.78;2.20;;;8.80;99.90;;;;;;5077220;28;20072;-71
2022/04/07 03:33:15;;;;;;;3.55;2.28;;;8.80;99.90;;;;;;5092024;28;20127;-72
2022/04/07 03:35:42;;;;;;;9.10;2.88;;;8.80;99.90;;;;;;5093522;28;20113;-72
2022/04/07 03:38:09;;;;;;;2.67;2.47;;;8.80;99.90;;;;;;5087955;28;20040;-72
2022/04/07 03:40:35;;;;;;;3.75;2.92;;;8.80;99.90;;;;;;5093477;28;20075;-73
2022/04/07 03:43:04;;;;;;;5.22;2.70;;;8.80;99.90;;;;;;5076558;28;20076;-72
2022/04/07 03:45:31;;;;;;;4.00;2.15;;;8.80;99.90;;;;;;5093692;28;20056;-72
2022/04/07 03:47:58;;;;;;;4.78;2.75;;;8.70;99.90;;;;;;5084102;28;20534;-72
2022/04/07 03:50:25;;;;;;;6.68;2.65;;;8.80;99.90;;;;;;5073638;28;20056;-73
2022/04/07 03:52:51;;;;;;;4.22;2.40;;;8.80;99.90;;;;;;5078835;28;20052;-74
2022/04/07 03:55:19;;;;;;;6.55;3.65;;;8.80;99.90;;;;;;5075339;28;20072;-74
2022/04/07 03:57:46;;;;;;;3.45;2.45;;;8.80;99.90;;;;;;5092977;28;20492;-73
2022/04/07 04:00:16;;;;;;;4.78;2.85;;;8.80;99.90;;;;;;5077864;28;20083;-73
2022/04/07 04:02:42;;;;;;;4.30;3.15;;;8.70;99.90;;;;;;5073675;28;20482;-74
2022/04/07 04:05:09;;;;;;;3.88;2.25;;;8.70;99.90;;;;;;5087514;28;20462;-73
2022/04/07 04:07:36;;;;;;;6.72;2.95;;;8.70;99.90;;;;;;5096603;28;20079;-73
2022/04/07 04:10:04;;;;;;;5.03;2.63;;;8.70;99.90;;;;;;5096526;28;20036;-75
2022/04/07 04:12:30;;;;;;;2.65;2.45;;;8.70;99.90;;;;;;5097412;28;20073;-75
2022/04/07 04:14:57;;;;;;;4.30;2.78;;;8.70;99.90;;;;;;5093298;28;20076;-75
2022/04/07 04:17:27;;;;;;;7.40;2.67;;;8.70;99.90;;;;;;5097465;28;20048;-75
2022/04/07 04:19:54;;;;;;;3.60;2.63;;;8.70;99.90;;;;;;5097137;28;20414;-75
2022/04/07 04:22:20;;;;;;;2.17;1.83;;;8.80;99.90;;;;;;5081642;28;20079;-76
2022/04/07 04:24:48;;;;;;;8.45;2.92;;;8.90;99.90;;;;;;5078111;28;20072;-74
2022/04/07 04:27:14;;;;;;;4.88;2.35;;;8.90;99.90;;;;;;5090762;28;20040;-73
2022/04/07 04:29:42;;;;;;;4.15;1.98;;;9.00;99.90;;;;;;5097109;28;20087;-74
2022/04/07 04:32:10;;;;;;;3.67;2.30;;;9.00;99.90;;;;;;5095277;28;20044;-74
2022/04/07 04:34:38;;;;;;;3.60;2.60;;;9.00;99.90;;;;;;5093929;28;20083;-75
2022/04/07 04:37:05;;;;;;;2.70;2.30;;;9.00;99.90;;;;;;5077869;28;20482;-74
2022/04/07 04:39:32;;;;;;;4.40;1.98;;;9.10;99.90;;;;;;5090604;28;20373;-72
2022/04/07 04:41:58;;;;;;;2.03;1.80;;;9.10;99.90;;;;;;5080062;28;20407;-72
2022/04/07 04:44:25;;;;;;;3.88;2.10;;;9.10;99.90;;;;;;5088227;28;20477;-73
2022/04/07 04:46:51;;;;;;;2.95;2.47;;;9.20;99.90;;;;;;5096531;28;20434;-72
2022/04/07 04:49:18;;;;;;;2.90;2.05;;;9.10;99.90;;;;;;5087993;28;20079;-72
2022/04/07 04:51:46;;;;;;;6.43;2.15;;;9.20;99.90;;;;;;5076349;28;20124;-72
2022/04/07 04:54:13;;;;;;;2.55;2.08;;;9.10;99.90;;;;;;5078038;28;20048;-74
2022/04/07 04:56:40;;;;;;;3.17;2.35;;;9.20;99.90;;;;;;5076360;28;20056;-72
2022/04/07 04:59:06;;;;;;;4.22;2.35;;;9.20;99.90;;;;;;5091212;28;20072;-73
2022/04/07 05:01:33;;;;;;;4.47;1.92;;;9.30;99.90;;;;;;5086024;28;20067;-73
2022/04/07 05:04:00;;;;;;;4.00;3.05;;;9.30;99.90;;;;;;5077175;28;20098;-73
2022/04/07 05:06:26;;;;;;;3.20;1.88;;;9.40;99.90;;;;;;5076264;28;20083;-74
2022/04/07 05:08:54;;;;;;;2.08;1.88;;;9.40;99.90;;;;;;5076216;28;20055;-73
2022/04/07 05:11:21;;;;;;;5.93;3.38;;;9.40;99.90;;;;;;5088223;28;20043;-74
2022/04/07 05:13:48;;;;;;;2.40;2.20;;;9.40;99.90;;;;;;5094272;28;20072;-75
2022/04/07 05:16:16;;;;;;;3.22;2.42;;;9.40;99.90;;;;;;5096399;28;20481;-74
2022/04/07 05:18:46;;;;;;;3.15;2.40;;;9.50;99.90;;;;;;5091100;28;20063;-74
2022/04/07 05:21:13;;;;;;;7.03;2.97;;;9.50;99.90;;;;;;5076863;28;20045;-74
2022/04/07 05:23:39;;;;;;;2.17;1.92;;;9.50;99.90;;;;;;5090416;28;20052;-73
2022/04/07 05:26:07;;;;;;;7.15;2.58;;;9.50;99.90;;;;;;5093962;28;20079;-72
2022/04/07 05:28:34;;;;;;;3.38;2.67;;;9.50;99.90;;;;;;5095327;28;20078;-74
2022/04/07 05:31:01;;;;;;;4.65;2.45;;;9.50;99.90;;;;;;5091224;28;20080;-72
2022/04/07 05:33:27;;;;;;;4.20;2.63;;;9.60;99.90;;;;;;5075887;28;20072;-74
2022/04/07 05:35:54;;;;;;;3.63;2.50;;;9.70;99.90;;;;;;5076669;28;20128;-75
2022/04/07 05:38:20;;;;;;;1.90;1.73;;;9.70;99.90;;;;;;5092419;28;20098;-72
2022/04/07 05:40:47;;;;;;;2.00;1.77;;;9.80;99.90;;;;;;5093070;28;20075;-73
2022/04/07 05:43:14;;;;;;;2.90;2.20;;;9.80;99.90;;;;;;5077424;28;20135;-71
2022/04/07 05:45:42;;;;;;;2.25;2.05;;;9.90;99.90;;;;;;5076368;28;20127;-72
2022/04/07 05:48:10;;;;;;;2.20;2.00;;;9.90;99.90;;;;;;5075458;28;20056;-71
2022/04/07 05:50:36;;;;;;;2.40;2.20;;;10.00;99.90;;;;;;5075278;28;20151;-71
2022/04/07 05:53:03;;;;;;;3.13;1.77;;;10.00;99.90;;;;;;5090151;28;20075;-73
2022/04/07 05:55:29;;;;;;;2.28;1.55;;;10.00;99.90;;;;;;5089983;28;20494;-74
2022/04/07 05:57:56;;;;;;;2.75;2.25;;;10.10;99.90;;;;;;5094814;28;20135;-71
2022/04/07 06:00:24;;;;;;;2.53;2.30;;;10.20;99.90;;;;;;5086790;28;20132;-70
2022/04/07 06:02:50;;;;;;;3.00;2.22;;;10.20;99.90;;;;;;5084796;28;20087;-71
2022/04/07 06:05:18;;;;;;;4.18;1.92;;;10.20;99.90;;;;;;5094851;28;20486;-71
2022/04/07 06:07:46;;;;;;;4.57;1.67;;;10.20;99.90;;;;;;5076759;28;20054;-71
2022/04/07 06:10:13;;;;;;;5.57;2.78;;;10.30;99.90;;;;;;5092938;28;20043;-74
2022/04/07 06:12:42;;;;;;;3.53;1.73;;;10.50;99.90;;;;;;5093257;28;20153;-72
2022/04/07 06:15:09;;;;;;;1.90;1.55;;;10.60;99.90;;;;;;5093032;28;20075;-71
2022/04/07 06:17:39;;;;;;;2.40;1.90;;;10.80;99.90;;;;;;5078333;28;20125;-73
2022/04/07 06:20:07;;;;;;;1.77;1.67;;;10.90;99.90;;;;;;5074994;28;20051;-73
2022/04/07 06:22:34;;;;;;;1.90;1.52;;;11.00;99.90;;;;;;5074703;28;20040;-73
2022/04/07 06:25:01;;;;;;;2.85;2.03;;;10.90;99.90;;;;;;5076998;28;20132;-73
2022/04/07 06:27:34;;;;;;;2.38;1.73;;;10.90;99.90;;;;;;5077069;28;20083;-72
2022/04/07 06:30:00;;;;;;;3.38;2.25;;;10.80;99.90;;;;;;5090678;28;20131;-72
2022/04/07 06:32:27;;;;;;;4.53;1.88;;;10.70;99.90;;;;;;5092169;28;20571;-71
2022/04/07 06:34:55;;;;;;;1.88;1.77;;;10.80;99.90;;;;;;5081975;28;20075;-72
2022/04/07 06:37:22;;;;;;;4.10;1.90;;;10.70;99.90;;;;;;5074476;28;20052;-74
2022/04/07 06:39:48;;;;;;;3.60;1.98;;;10.80;99.90;;;;;;5074016;28;20586;-75
2022/04/07 06:42:15;;;;;;;1.80;1.60;;;10.80;99.90;;;;;;5074937;28;20514;-75
2022/04/07 06:44:42;;;;;;;2.03;1.65;;;10.80;99.90;;;;;;5075149;28;20052;-75
2022/04/07 06:47:09;;;;;;;3.97;1.70;;;10.80;99.90;;;;;;5074272;28;20091;-75
2022/04/07 06:49:35;;;;;;;2.08;1.90;;;10.80;99.90;;;;;;5078925;28;20075;-75
2022/04/07 06:52:03;;;;;;;2.60;2.22;;;10.80;99.90;;;;;;5093352;28;20044;-75
2022/04/07 06:54:30;;;;;;;3.22;2.10;;;10.80;99.90;;;;;;5091711;28;20076;-75
2022/04/07 06:56:56;;;;;;;1.70;1.60;;;10.80;99.90;;;;;;5078715;28;20075;-75
2022/04/07 06:59:23;;;;;;;3.00;1.83;;;10.90;99.90;;;;;;5073644;28;20087;-73
2022/04/07 07:01:50;;;;;;;3.03;2.20;;;11.00;99.90;;;;;;5092831;28;20498;-74
2022/04/07 07:04:16;;;;;;;3.13;2.50;;;11.10;99.90;;;;;;5094023;28;20048;-74
2022/04/07 07:06:43;;;;;;;3.72;1.77;;;11.20;99.90;;;;;;5088796;28;20492;-74
2022/04/07 07:09:11;;;;;;;2.10;1.90;;;11.30;99.90;;;;;;5074696;28;20044;-75
2022/04/07 07:11:37;;;;;;;1.95;1.73;;;11.40;99.90;;;;;;5092712;28;20076;-72
2022/04/07 07:14:04;;;;;;;4.20;1.67;;;11.50;99.90;;;;;;5093885;28;20471;-72
2022/04/07 07:16:30;;;;;;;3.08;2.22;;;11.60;99.90;;;;;;5091808;28;20485;-73
2022/04/07 07:18:57;;;;;;;5.00;2.00;;;11.60;99.90;;;;;;5092463;28;20132;-73
2022/04/07 07:21:23;;;;;;;1.83;1.65;;;11.60;99.90;;;;;;5093002;28;20098;-74
2022/04/07 07:23:50;;;;;;;1.40;1.30;;;11.70;99.90;;;;;;5089008;28;20068;-74
2022/04/07 07:26:18;;;;;;;1.48;1.38;;;11.80;99.90;;;;;;5073983;28;20091;-71
2022/04/07 07:28:44;;;;;;;3.13;1.58;;;11.90;99.90;;;;;;5073969;28;20465;-73
2022/04/07 07:31:11;;;;;;;2.58;1.95;;;12.10;99.90;;;;;;5074187;28;20053;-72
2022/04/07 07:33:37;;;;;;;2.05;1.80;;;12.50;99.90;;;;;;5073597;28;20052;-73
2022/04/07 07:36:04;;;;;;;1.60;1.48;;;12.70;99.90;;;;;;5081233;28;20477;-76
2022/04/07 07:38:31;;;;;;;1.70;1.60;;;12.80;99.90;;;;;;5074854;28;20044;-76
2022/04/07 07:40:57;;;;;;;3.00;1.60;;;13.10;99.90;;;;;;5073278;28;20087;-78
2022/04/07 07:43:25;;;;;;;2.65;1.55;;;13.30;99.90;;;;;;5074261;28;20087;-73
2022/04/07 07:45:52;;;;;;;2.60;1.33;;;13.60;99.90;;;;;;5078705;28;20072;-76
2022/04/07 07:48:24;;;;;;;2.35;1.88;;;13.70;99.90;;;;;;5089693;28;20036;-75
2022/04/07 07:50:50;;;;;;;2.55;2.35;;;13.80;99.90;;;;;;5096738;28;20075;-74
2022/04/07 07:53:17;;;;;;;3.10;1.90;;;14.00;99.90;;;;;;5091675;28;20399;-72
2022/04/07 07:55:43;;;;;;;2.05;1.85;;;13.90;99.90;;;;;;5091848;28;20581;-73
2022/04/07 07:58:10;;;;;;;2.05;1.85;;;13.90;99.90;;;;;;5093173;28;20128;-74
2022/04/07 08:00:38;;;;;;;1.60;1.50;;;13.50;99.90;;;;;;5093499;28;20106;-74
2022/04/07 08:03:05;;;;;;;1.73;1.30;;;13.50;99.90;;;;;;5074834;28;20084;-73
2022/04/07 08:05:31;;;;;;;1.90;1.40;;;13.50;99.90;;;;;;5073387;28;20106;-73
2022/04/07 08:07:58;;;;;;;1.85;1.30;;;13.30;99.90;;;;;;5073096;28;20083;-74
2022/04/07 08:10:25;;;;;;;2.00;1.20;;;13.30;99.90;;;;;;5073580;28;20076;-74
2022/04/07 08:12:51;;;;;;;2.42;1.23;;;13.10;99.90;;;;;;5075072;28;20142;-73
2022/04/07 08:15:18;;;;;;;1.67;1.00;;;12.90;99.90;;;;;;5084204;28;20099;-74
2022/04/07 08:17:46;;;;;;;1.92;1.17;;;13.10;99.90;;;;;;5085161;28;20087;-74
2022/04/07 08:20:13;;;;;;;2.08;1.23;;;13.40;99.90;;;;;;5092897;28;20106;-73
2022/04/07 08:22:39;;;;;;;1.23;1.13;;;13.20;99.90;;;;;;5090404;28;20044;-74
2022/04/07 08:25:06;;;;;;;1.38;1.27;;;13.20;99.90;;;;;;5087954;28;20604;-74
2022/04/07 08:27:33;;;;;;;0.95;0.93;;;13.10;99.90;;;;;;5091447;28;20513;-73
2022/04/07 08:30:00;;;;;;;2.17;2.08;;;12.90;99.90;;;;;;5075188;28;20068;-71
2022/04/07 08:32:26;;;;;;;1.88;1.70;;;12.80;99.90;;;;;;5091517;28;20040;-71
2022/04/07 08:34:56;;;;;;;1.42;1.33;;;12.70;99.90;;;;;;5075662;28;20040;-73
2022/04/07 08:37:23;;;;;;;1.25;1.15;;;12.80;99.90;;;;;;5077691;28;20060;-72
2022/04/07 08:39:51;;;;;;;1.20;1.13;;;13.10;99.90;;;;;;5075965;28;20072;-73
2022/04/07 08:42:20;;;;;;;1.38;0.80;;;13.30;99.90;;;;;;5073679;28;20094;-69
2022/04/07 08:44:47;;;;;;;1.25;1.10;;;14.00;99.90;;;;;;5072297;28;20049;-71
2022/04/07 08:47:16;;;;;;;1.10;0.75;;;14.70;99.90;;;;;;5087623;28;20094;-73
2022/04/07 08:49:44;;;;;;;1.27;1.00;;;15.10;99.90;;;;;;5092792;28;20052;-73
2022/04/07 08:52:12;;;;;;;2.58;0.90;;;15.50;99.90;;;;;;5086052;28;20079;-76
2022/04/07 08:54:39;;;;;;;0.98;0.70;;;15.60;99.90;;;;;;5077094;28;20072;-73
2022/04/07 08:57:05;;;;;;;1.00;1.00;;;15.10;99.90;;;;;;5076387;28;20075;-72
2022/04/07 08:59:32;;;;;;;0.80;0.80;;;15.90;99.90;;;;;;5076474;28;20082;-75
2022/04/07 09:02:03;;;;;;;1.13;0.82;;;15.40;99.90;;;;;;5084373;28;20040;-74
2022/04/07 09:04:31;;;;;;;0.73;0.73;;;15.00;99.90;;;;;;5094594;28;20538;-74
2022/04/07 09:06:58;;;;;;;0.90;0.90;;;14.50;99.90;;;;;;5096078;28;20051;-73
2022/04/07 09:09:26;;;;;;;0.70;0.70;;;13.90;99.90;;;;;;5096384;28;20076;-74
2022/04/07 09:11:56;;;;;;;4.20;1.10;;;14.20;99.90;;;;;;5096297;28;20052;-75
2022/04/07 09:14:23;;;;;;;1.15;1.05;;;14.40;99.90;;;;;;5094209;28;20084;-72
2022/04/07 09:16:56;;;;;;;0.95;0.95;;;14.20;99.90;;;;;;5078493;28;20076;-74
2022/04/07 09:19:23;;;;;;;0.75;0.75;;;14.00;99.90;;;;;;5075753;28;20437;-74
2022/04/07 09:22:05;;;;;;;0.80;0.80;;;13.80;99.90;;;;;;5075753;28;20056;-74
2022/04/07 09:24:35;;;;;;;0.60;0.60;;;13.60;99.90;;;;;;5075233;28;20083;-73
2022/04/07 09:27:12;;;;;;;0.80;0.80;;;13.40;99.90;;;;;;5076326;28;20045;-76
2022/04/07 09:29:40;;;;;;;1.05;0.68;;;13.60;99.90;;;;;;5083979;28;20055;-73
2022/04/07 09:32:19;;;;;;;0.47;0.47;;;13.70;99.90;;;;;;5095948;28;20140;-76
2022/04/07 09:34:46;;;;;;;0.98;0.90;;;13.80;99.90;;;;;;5087529;28;20044;-76
2022/04/07 09:37:14;;;;;;;0.60;0.60;;;14.40;99.90;;;;;;5090121;28;20044;-76
2022/04/07 09:39:43;;;;;;;0.95;0.95;;;14.70;99.90;;;;;;5095511;28;20098;-77
2022/04/07 09:42:22;;;;;;;0.50;0.50;;;15.00;99.90;;;;;;5088985;28;20047;-76
2022/04/07 09:44:53;;;;;;;0.45;0.45;;;14.70;99.90;;;;;;5087206;28;20109;-76
2022/04/07 09:47:20;;;;;;;0.60;0.60;;;14.30;99.90;;;;;;5095307;28;20044;-76
2022/04/07 09:49:48;;;;;;;0.80;0.80;;;14.20;99.90;;;;;;5095521;28;20052;-74
2022/04/07 09:52:19;;;;;;;0.68;0.68;;;14.50;99.90;;;;;;5079354;28;20049;-75
2022/04/07 09:54:50;;;;;;;0.70;0.60;;;14.90;99.90;;;;;;5075990;28;20139;-74
2022/04/07 09:57:18;;;;;;;0.57;0.57;;;16.20;99.20;;;;;;5075417;28;20053;-74
2022/04/07 09:59:46;;;;;;;0.75;0.75;;;15.70;98.00;;;;;;5075147;28;20048;-73
2022/04/07 10:02:12;;;;;;;1.17;0.57;;;15.20;98.60;;;;;;5075071;28;20105;-73
2022/04/07 10:04:40;;;;;;;0.75;0.50;;;15.20;97.70;;;;;;5074203;28;20109;-73
2022/04/07 10:07:11;;;;;;;0.20;0.20;;;15.10;97.80;;;;;;5075049;28;20048;-74
2022/04/07 10:09:39;;;;;;;0.40;0.40;;;14.70;98.40;;;;;;5075067;28;20396;-73
2022/04/07 10:12:08;;;;;;;0.95;0.40;;;14.40;98.50;;;;;;5075008;28;20474;-74
2022/04/07 10:14:37;;;;;;;0.70;0.60;;;14.30;99.10;;;;;;5075093;28;20147;-73
2022/04/07 10:17:04;;;;;;;1.13;0.55;;;14.30;99.50;;;;;;5074574;28;20485;-73
2022/04/07 10:19:35;;;;;;;0.40;0.40;;;14.30;99.90;;;;;;5075053;28;20405;-74
2022/04/07 10:22:39;;;;;;;0.68;0.43;;;14.30;99.90;;;;;;5074842;28;20052;-74
2022/04/07 10:25:07;;;;;;;0.43;0.40;;;14.50;99.80;;;;;;5083396;28;20110;-74
2022/04/07 10:27:43;;;;;;;0.43;0.43;;;14.60;99.90;;;;;;5095028;28;20051;-74
2022/04/07 10:30:11;;;;;;;1.17;0.70;;;14.40;99.90;;;;;;5092232;28;20091;-74
2022/04/07 10:32:42;;;;;;;0.73;0.50;;;15.00;99.40;;;;;;5094948;28;20052;-73
2022/04/07 10:35:11;;;;;;;0.52;0.52;;;15.70;97.80;;;;;;5087593;28;20044;-74
2022/04/07 10:37:43;;;;;;;0.70;0.70;;;15.20;98.60;;;;;;5084286;28;20079;-74
2022/04/07 10:40:50;;;;;;;0.50;0.50;;;14.90;99.20;;;;;;5094547;28;20048;-74
2022/04/07 10:43:20;;;;;;;0.40;0.40;;;14.70;99.90;;;;;;5012280;28;20506;-73
2022/04/07 10:45:49;;;;;;;0.93;0.60;;;14.60;99.90;;;;;;5012375;28;20053;-75
2022/04/07 10:48:20;;;;;;;1.92;0.57;;;14.50;99.90;;;;;;5012197;28;20383;-74
2022/04/07 10:50:49;;;;;;;2.53;0.40;;;14.40;99.80;;;;;;5012308;28;20536;-74
2022/04/07 10:53:20;;;;;;;1.27;0.65;;;14.30;99.90;;;;;;5012331;28;20060;-74
2022/04/07 10:55:58;;;;;;;0.40;0.40;;;14.30;99.90;;;;;;5012054;28;20089;-75
2022/04/07 10:58:46;;;;;;;0.25;0.25;;;14.40;99.90;;;;;;5011859;28;20089;-75
2022/04/07 11:01:15;;;;;;;2.13;0.60;;;14.20;99.90;;;;;;5012010;28;20116;-74
2022/04/07 11:03:42;;;;;;;0.43;0.43;;;14.00;99.90;;;;;;5012046;28;20053;-74
2022/04/07 11:06:10;;;;;;;0.73;0.73;;;14.00;99.90;;;;;;4995851;28;20043;-74
2022/04/07 11:08:37;;;;;;;0.63;0.40;;;13.90;99.90;;;;;;4992164;28;20136;-75
2022/04/07 11:11:07;;;;;;;0.60;0.60;;;13.40;99.90;;;;;;5001347;28;20053;-77
2022/04/07 11:13:48;;;;;;;0.70;0.70;;;13.10;99.90;;;;;;5015569;28;20532;-75
2022/04/07 11:16:23;;;;;;;0.57;0.57;;;12.80;99.90;;;;;;5073905;28;20450;-76
2022/04/07 11:19:12;;;;;;;0.60;0.60;;;12.70;99.90;;;;;;5086112;28;20050;-73
2022/04/07 11:21:46;;;;;;;1.85;0.75;;;12.70;99.90;;;;;;5093698;28;20048;-74
2022/04/07 11:24:23;;;;;;;1.13;0.80;;;12.70;99.90;;;;;;5091442;28;20233;-73
2022/04/07 11:26:49;;;;;;;0.45;0.45;;;12.70;99.90;;;;;;5093326;28;20055;-74
2022/04/07 11:29:31;;;;;;;0.60;0.60;;;12.70;99.90;;;;;;5079453;28;20080;-76
2022/04/07 11:32:07;;;;;;;0.60;0.60;;;12.70;99.90;;;;;;5073214;28;20131;-74
2022/04/07 11:34:51;;;;;;;0.47;0.47;;;12.70;99.90;;;;;;5072659;28;20497;-75
2022/04/07 11:37:19;;;;;;;0.40;0.40;;;12.90;99.90;;;;;;5073201;28;20127;-75
2022/04/07 11:39:48;;;;;;;0.50;0.43;;;13.00;99.90;;;;;;5073078;28;20050;-76
2022/04/07 11:42:16;;;;;;;0.43;0.40;;;13.10;99.90;;;;;;5082734;28;20090;-74
2022/04/07 11:44:45;;;;;;;0.50;0.43;;;13.10;99.90;;;;;;5093018;28;20486;-73
2022/04/07 11:47:22;;;;;;;0.30;0.30;;;13.10;99.90;;;;;;5076265;28;20379;-73
2022/04/07 11:49:49;;;;;;;0.73;0.60;;;13.20;99.90;;;;;;5082703;28;20489;-75
2022/04/07 11:52:16;;;;;;;0.30;0.30;;;13.30;99.90;;;;;;5093170;28;20044;-73
2022/04/07 11:54:43;;;;;;;1.10;0.50;;;13.40;99.90;;;;;;5092596;28;20486;-75
2022/04/07 11:57:10;;;;;;;0.38;0.32;;;13.40;99.90;;;;;;5081038;28;20557;-73
2022/04/07 11:59:37;;;;;;;0.77;0.70;;;13.50;99.90;;;;;;5072754;28;20037;-74
2022/04/07 12:02:08;;;;;;;0.30;0.30;;;13.60;99.90;;;;;;5083700;28;20048;-74
2022/04/07 12:04:35;;;;;;;0.35;0.35;;;13.60;99.90;;;;;;5092869;28;20261;-74
2022/04/07 12:07:02;;;;;;;0.68;0.65;;;13.60;99.90;;;;;;5091116;28;20040;-74
2022/04/07 12:09:28;;;;;;;0.47;0.45;;;13.30;99.90;;;;;;5090157;28;20093;-74
2022/04/07 12:11:55;;;;;;;0.52;0.52;;;13.20;99.90;;;;;;5092540;28;20497;-76
2022/04/07 12:14:25;;;;;;;0.25;0.25;;;13.10;99.90;;;;;;5073087;28;20044;-75
2022/04/07 12:16:52;;;;;;;4.45;0.90;;;13.10;99.90;;;;;;5072668;28;20390;-73
2022/04/07 12:19:20;;;;;;;1.67;0.60;;;12.90;99.90;;;;;;5072269;28;20123;-73
2022/04/07 12:21:55;;;;;;;0.52;0.40;;;12.70;99.90;;;;;;5072549;28;20540;-74
2022/04/07 12:24:22;;;;;;;0.63;0.55;;;12.70;99.90;;;;;;5072495;28;20045;-73
2022/04/07 12:26:50;;;;;;;1.02;0.85;;;12.40;99.90;;;;;;5073380;28;20052;-73
2022/04/07 12:29:20;;;;;;;0.60;0.60;;;12.20;99.90;;;;;;5076188;28;20045;-73
2022/04/07 12:31:57;;;;;;;2.55;0.80;;;11.90;99.90;;;;;;5076270;28;20097;-73
2022/04/07 12:34:25;;;;;;;0.50;0.50;;;11.80;99.90;;;;;;5076269;28;20102;-73
2022/04/07 12:36:52;;;;;;;0.63;0.63;;;11.80;99.90;;;;;;5079043;28;20068;-74
2022/04/07 12:39:20;;;;;;;0.85;0.85;;;11.70;99.90;;;;;;5096510;28;20105;-74
2022/04/07 12:41:50;;;;;;;2.92;0.82;;;11.50;99.90;;;;;;5095955;28;20493;-74
2022/04/07 12:44:19;;;;;;;1.17;0.60;;;11.40;99.90;;;;;;5096188;28;20131;-74
2022/04/07 12:46:50;;;;;;;0.50;0.50;;;11.50;99.90;;;;;;5096354;28;20055;-74
2022/04/07 12:49:25;;;;;;;0.50;0.50;;;11.60;99.90;;;;;;5096729;28;20052;-74
2022/04/07 12:52:03;;;;;;;1.75;0.60;;;11.70;99.90;;;;;;5096291;28;20082;-73
2022/04/07 12:54:30;;;;;;;2.00;0.57;;;11.80;99.90;;;;;;5084432;28;20110;-75
2022/04/07 12:57:12;;;;;;;0.60;0.40;;;11.90;99.90;;;;;;5075625;28;20110;-74
2022/04/07 12:59:40;;;;;;;1.92;1.00;;;12.00;99.90;;;;;;5075903;28;20062;-74